Terminal Aerodrome Forecast
Issued by NWS Cleveland, OH

Home | Current Version | Previous Version | Text Only | Print | Product List | Glossary Off
Versions: 1 2 3 4 5 6 7 8 9 10 11 12 13

000
FTUS41 KCLE 241700
TAFTOL
TAF
KTOL 241737Z 2418/2518 11005KT 1 1/2SM BR OVC003
      TEMPO 2418/2421 5SM -SHRA BR OVC005
     FM242100 16012G18KT 4SM -SHRA BR OVC008
     FM242200 18015G25KT 4SM -SHRA OVC010
     FM242300 24022G40KT P6SM OVC012
     FM250700 25015G30KT 3SM -SHSN OVC012
     FM251000 25012G22KT P6SM OVC015
     FM251400 26012G24KT P6SM -SHSN OVC024=

USA.gov is the U.S. government's official web portal to all federal, state and local government web resources and services.